Terminal Aerodrome Forecast
Issued by NWS Sioux Falls, SD

Home | Current Version | Previous Version | Graphics & Text | Print | Product List | Glossary On
Versions: 1 2 3 4 5 6 7 8 9 10 11 12 13 14 15 16 17 18 19 20 21 22 23 24 25 26 27 28 29 30 31
312
FTUS43 KFSD 081135
TAFSUX
TAF
KSUX 081135Z 0812/0912 33028G40KT P6SM -SHSN SCT025 OVC035
      TEMPO 0812/0814 3SM -SN BLSN OVC025
     FM081700 33027G39KT P6SM OVC025
     FM082000 33027G36KT P6SM BKN040
     FM082300 34024G32KT P6SM SCT200
     FM090100 34016G25KT P6SM SCT150=

USA.gov is the U.S. government's official web portal to all federal, state and local government web resources and services.